sensor_id;sensor_type;location;lat;lon;timestamp;P1;durP1;ratioP1;P2;durP2;ratioP2
46731;SDS011;32477;51.474;5.696;2024-03-22T00:01:46;62.45;;;23.92;;
46731;SDS011;32477;51.474;5.696;2024-03-22T00:04:13;66.60;;;25.83;;
46731;SDS011;32477;51.474;5.696;2024-03-22T00:06:41;57.15;;;23.77;;
46731;SDS011;32477;51.474;5.696;2024-03-22T00:09:07;56.45;;;23.45;;
46731;SDS011;32477;51.474;5.696;2024-03-22T00:11:33;63.35;;;24.13;;
46731;SDS011;32477;51.474;5.696;2024-03-22T00:13:59;55.95;;;24.27;;
46731;SDS011;32477;51.474;5.696;2024-03-22T00:16:27;57.15;;;23.63;;
46731;SDS011;32477;51.474;5.696;2024-03-22T00:18:53;70.00;;;25.48;;
46731;SDS011;32477;51.474;5.696;2024-03-22T00:21:18;58.55;;;24.48;;
46731;SDS011;32477;51.474;5.696;2024-03-22T00:23:45;72.43;;;26.58;;
46731;SDS011;32477;51.474;5.696;2024-03-22T00:26:13;63.83;;;24.30;;
46731;SDS011;32477;51.474;5.696;2024-03-22T00:28:39;69.95;;;25.02;;
46731;SDS011;32477;51.474;5.696;2024-03-22T00:31:07;64.28;;;23.48;;
46731;SDS011;32477;51.474;5.696;2024-03-22T00:33:36;65.80;;;25.70;;
46731;SDS011;32477;51.474;5.696;2024-03-22T00:36:02;71.95;;;26.73;;
46731;SDS011;32477;51.474;5.696;2024-03-22T00:38:31;62.83;;;25.13;;
46731;SDS011;32477;51.474;5.696;2024-03-22T00:40:57;73.35;;;26.90;;
46731;SDS011;32477;51.474;5.696;2024-03-22T00:43:23;71.93;;;26.50;;
46731;SDS011;32477;51.474;5.696;2024-03-22T00:45:49;63.65;;;24.80;;
46731;SDS011;32477;51.474;5.696;2024-03-22T00:48:15;62.80;;;26.98;;
46731;SDS011;32477;51.474;5.696;2024-03-22T00:50:43;66.43;;;27.75;;
46731;SDS011;32477;51.474;5.696;2024-03-22T00:53:09;64.60;;;26.48;;
46731;SDS011;32477;51.474;5.696;2024-03-22T00:55:35;63.55;;;26.23;;
46731;SDS011;32477;51.474;5.696;2024-03-22T00:58:01;73.45;;;28.23;;
46731;SDS011;32477;51.474;5.696;2024-03-22T01:00:26;69.25;;;27.00;;
46731;SDS011;32477;51.474;5.696;2024-03-22T01:02:52;68.43;;;27.00;;
46731;SDS011;32477;51.474;5.696;2024-03-22T01:05:18;84.18;;;29.45;;
46731;SDS011;32477;51.474;5.696;2024-03-22T01:07:44;69.88;;;27.23;;
46731;SDS011;32477;51.474;5.696;2024-03-22T01:10:10;62.92;;;27.30;;
46731;SDS011;32477;51.474;5.696;2024-03-22T01:12:36;71.95;;;28.88;;
46731;SDS011;32477;51.474;5.696;2024-03-22T01:15:04;66.05;;;26.45;;
46731;SDS011;32477;51.474;5.696;2024-03-22T01:17:30;64.55;;;26.33;;
46731;SDS011;32477;51.474;5.696;2024-03-22T01:19:56;66.00;;;27.40;;
46731;SDS011;32477;51.474;5.696;2024-03-22T01:22:22;75.15;;;28.15;;
46731;SDS011;32477;51.474;5.696;2024-03-22T01:24:48;64.55;;;27.35;;
46731;SDS011;32477;51.474;5.696;2024-03-22T01:27:14;77.85;;;28.45;;
46731;SDS011;32477;51.474;5.696;2024-03-22T01:29:40;66.25;;;27.70;;
46731;SDS011;32477;51.474;5.696;2024-03-22T01:32:05;61.10;;;26.80;;
46731;SDS011;32477;51.474;5.696;2024-03-22T01:34:32;70.43;;;28.25;;
46731;SDS011;32477;51.474;5.696;2024-03-22T01:36:58;63.05;;;27.75;;
46731;SDS011;32477;51.474;5.696;2024-03-22T01:39:23;75.93;;;28.38;;
46731;SDS011;32477;51.474;5.696;2024-03-22T01:41:50;72.47;;;29.05;;
46731;SDS011;32477;51.474;5.696;2024-03-22T01:44:16;75.75;;;28.42;;
46731;SDS011;32477;51.474;5.696;2024-03-22T01:46:42;67.35;;;29.40;;
46731;SDS011;32477;51.474;5.696;2024-03-22T01:49:10;70.85;;;28.50;;
46731;SDS011;32477;51.474;5.696;2024-03-22T01:51:42;71.05;;;30.08;;
46731;SDS011;32477;51.474;5.696;2024-03-22T01:54:08;67.05;;;29.25;;
46731;SDS011;32477;51.474;5.696;2024-03-22T01:56:38;67.18;;;29.63;;
46731;SDS011;32477;51.474;5.696;2024-03-22T01:59:04;66.45;;;27.25;;
46731;SDS011;32477;51.474;5.696;2024-03-22T02:01:31;71.97;;;27.55;;
46731;SDS011;32477;51.474;5.696;2024-03-22T02:03:57;66.53;;;28.67;;
46731;SDS011;32477;51.474;5.696;2024-03-22T02:06:23;64.55;;;28.75;;
46731;SDS011;32477;51.474;5.696;2024-03-22T02:08:49;66.35;;;29.13;;
46731;SDS011;32477;51.474;5.696;2024-03-22T02:11:14;62.42;;;28.67;;
46731;SDS011;32477;51.474;5.696;2024-03-22T02:13:43;69.15;;;28.50;;
46731;SDS011;32477;51.474;5.696;2024-03-22T02:16:12;72.72;;;27.55;;
46731;SDS011;32477;51.474;5.696;2024-03-22T02:18:40;69.50;;;28.75;;
46731;SDS011;32477;51.474;5.696;2024-03-22T02:21:06;60.75;;;26.60;;
46731;SDS011;32477;51.474;5.696;2024-03-22T02:23:35;68.25;;;28.65;;
46731;SDS011;32477;51.474;5.696;2024-03-22T02:26:02;66.32;;;26.20;;
46731;SDS011;32477;51.474;5.696;2024-03-22T02:28:29;71.90;;;28.60;;
46731;SDS011;32477;51.474;5.696;2024-03-22T02:30:57;61.70;;;27.23;;
46731;SDS011;32477;51.474;5.696;2024-03-22T02:33:23;71.43;;;29.50;;
46731;SDS011;32477;51.474;5.696;2024-03-22T02:35:49;70.22;;;28.92;;
46731;SDS011;32477;51.474;5.696;2024-03-22T02:38:15;67.53;;;28.13;;
46731;SDS011;32477;51.474;5.696;2024-03-22T02:40:44;72.57;;;29.27;;
46731;SDS011;32477;51.474;5.696;2024-03-22T02:43:14;65.93;;;27.83;;
46731;SDS011;32477;51.474;5.696;2024-03-22T02:45:42;72.78;;;28.95;;
46731;SDS011;32477;51.474;5.696;2024-03-22T02:48:08;65.68;;;27.45;;
46731;SDS011;32477;51.474;5.696;2024-03-22T02:50:34;75.50;;;28.70;;
46731;SDS011;32477;51.474;5.696;2024-03-22T02:53:01;77.38;;;28.00;;
46731;SDS011;32477;51.474;5.696;2024-03-22T02:55:30;72.95;;;29.95;;
46731;SDS011;32477;51.474;5.696;2024-03-22T03:00:27;69.65;;;27.08;;
46731;SDS011;32477;51.474;5.696;2024-03-22T03:02:53;61.75;;;27.23;;
46731;SDS011;32477;51.474;5.696;2024-03-22T03:05:19;58.63;;;25.17;;
46731;SDS011;32477;51.474;5.696;2024-03-22T03:07:44;69.13;;;27.15;;
46731;SDS011;32477;51.474;5.696;2024-03-22T03:10:12;63.58;;;26.80;;
46731;SDS011;32477;51.474;5.696;2024-03-22T03:12:40;59.28;;;24.02;;
46731;SDS011;32477;51.474;5.696;2024-03-22T03:15:08;67.95;;;27.40;;
46731;SDS011;32477;51.474;5.696;2024-03-22T03:17:34;53.95;;;25.42;;
46731;SDS011;32477;51.474;5.696;2024-03-22T03:20:00;49.42;;;23.80;;
46731;SDS011;32477;51.474;5.696;2024-03-22T03:22:26;53.28;;;24.55;;
46731;SDS011;32477;51.474;5.696;2024-03-22T03:24:51;56.95;;;23.60;;
46731;SDS011;32477;51.474;5.696;2024-03-22T03:27:17;52.80;;;22.42;;
46731;SDS011;32477;51.474;5.696;2024-03-22T03:29:43;52.42;;;22.33;;
46731;SDS011;32477;51.474;5.696;2024-03-22T03:32:08;47.47;;;22.50;;
46731;SDS011;32477;51.474;5.696;2024-03-22T03:34:34;53.28;;;22.88;;
46731;SDS011;32477;51.474;5.696;2024-03-22T03:37:13;48.40;;;22.05;;
46731;SDS011;32477;51.474;5.696;2024-03-22T03:39:42;49.67;;;21.50;;
46731;SDS011;32477;51.474;5.696;2024-03-22T03:42:08;57.67;;;22.98;;
46731;SDS011;32477;51.474;5.696;2024-03-22T03:44:37;45.60;;;21.95;;
46731;SDS011;32477;51.474;5.696;2024-03-22T03:47:03;45.83;;;22.02;;
46731;SDS011;32477;51.474;5.696;2024-03-22T03:49:28;58.50;;;22.85;;
46731;SDS011;32477;51.474;5.696;2024-03-22T03:51:54;44.42;;;21.23;;
46731;SDS011;32477;51.474;5.696;2024-03-22T03:54:23;46.88;;;21.00;;
46731;SDS011;32477;51.474;5.696;2024-03-22T03:56:49;44.17;;;21.52;;
46731;SDS011;32477;51.474;5.696;2024-03-22T03:59:15;48.30;;;20.83;;
46731;SDS011;32477;51.474;5.696;2024-03-22T04:01:40;48.22;;;21.65;;
46731;SDS011;32477;51.474;5.696;2024-03-22T04:04:06;49.25;;;21.13;;
46731;SDS011;32477;51.474;5.696;2024-03-22T04:06:32;45.17;;;20.90;;
46731;SDS011;32477;51.474;5.696;2024-03-22T04:08:59;45.65;;;22.05;;
46731;SDS011;32477;51.474;5.696;2024-03-22T04:11:25;47.70;;;20.42;;
46731;SDS011;32477;51.474;5.696;2024-03-22T04:13:51;47.30;;;21.33;;
46731;SDS011;32477;51.474;5.696;2024-03-22T04:16:17;52.95;;;21.05;;
46731;SDS011;32477;51.474;5.696;2024-03-22T04:18:43;48.55;;;20.42;;
46731;SDS011;32477;51.474;5.696;2024-03-22T04:21:09;56.30;;;22.45;;
46731;SDS011;32477;51.474;5.696;2024-03-22T04:23:34;49.42;;;20.27;;
46731;SDS011;32477;51.474;5.696;2024-03-22T04:26:00;47.25;;;21.40;;
46731;SDS011;32477;51.474;5.696;2024-03-22T04:28:47;40.90;;;20.35;;
46731;SDS011;32477;51.474;5.696;2024-03-22T04:31:13;44.33;;;20.30;;
46731;SDS011;32477;51.474;5.696;2024-03-22T04:33:40;41.55;;;20.67;;
46731;SDS011;32477;51.474;5.696;2024-03-22T04:36:06;52.05;;;21.80;;
46731;SDS011;32477;51.474;5.696;2024-03-22T04:38:34;48.03;;;20.10;;
46731;SDS011;32477;51.474;5.696;2024-03-22T04:41:00;44.35;;;20.85;;
46731;SDS011;32477;51.474;5.696;2024-03-22T04:43:27;45.40;;;20.80;;
46731;SDS011;32477;51.474;5.696;2024-03-22T04:45:53;40.85;;;19.80;;
46731;SDS011;32477;51.474;5.696;2024-03-22T04:48:19;48.20;;;22.88;;
46731;SDS011;32477;51.474;5.696;2024-03-22T04:50:46;44.78;;;21.33;;
46731;SDS011;32477;51.474;5.696;2024-03-22T04:53:16;36.88;;;19.52;;
46731;SDS011;32477;51.474;5.696;2024-03-22T04:55:43;43.83;;;19.25;;
46731;SDS011;32477;51.474;5.696;2024-03-22T04:58:15;48.40;;;20.05;;
46731;SDS011;32477;51.474;5.696;2024-03-22T05:00:46;41.30;;;19.65;;
46731;SDS011;32477;51.474;5.696;2024-03-22T05:03:13;37.92;;;18.95;;
46731;SDS011;32477;51.474;5.696;2024-03-22T05:05:43;37.85;;;19.20;;
46731;SDS011;32477;51.474;5.696;2024-03-22T05:08:08;39.05;;;19.23;;
46731;SDS011;32477;51.474;5.696;2024-03-22T05:10:35;40.33;;;18.70;;
46731;SDS011;32477;51.474;5.696;2024-03-22T05:13:01;39.35;;;19.35;;
46731;SDS011;32477;51.474;5.696;2024-03-22T05:15:27;44.88;;;20.75;;
46731;SDS011;32477;51.474;5.696;2024-03-22T05:17:54;37.78;;;19.83;;
46731;SDS011;32477;51.474;5.696;2024-03-22T05:20:21;46.53;;;20.30;;
46731;SDS011;32477;51.474;5.696;2024-03-22T05:22:47;41.95;;;20.38;;
46731;SDS011;32477;51.474;5.696;2024-03-22T05:25:13;44.90;;;18.88;;
46731;SDS011;32477;51.474;5.696;2024-03-22T05:27:40;44.60;;;20.30;;
46731;SDS011;32477;51.474;5.696;2024-03-22T05:30:07;43.10;;;19.35;;
46731;SDS011;32477;51.474;5.696;2024-03-22T05:32:36;41.65;;;20.05;;
46731;SDS011;32477;51.474;5.696;2024-03-22T05:35:01;41.38;;;18.52;;
46731;SDS011;32477;51.474;5.696;2024-03-22T05:37:27;42.45;;;19.70;;
46731;SDS011;32477;51.474;5.696;2024-03-22T05:39:53;39.75;;;18.92;;
46731;SDS011;32477;51.474;5.696;2024-03-22T05:42:20;42.58;;;19.10;;
46731;SDS011;32477;51.474;5.696;2024-03-22T05:44:45;39.38;;;18.92;;
46731;SDS011;32477;51.474;5.696;2024-03-22T05:47:11;41.65;;;18.10;;
46731;SDS011;32477;51.474;5.696;2024-03-22T05:49:40;39.42;;;18.48;;
46731;SDS011;32477;51.474;5.696;2024-03-22T05:52:06;43.78;;;19.92;;
46731;SDS011;32477;51.474;5.696;2024-03-22T05:54:31;45.63;;;18.98;;
46731;SDS011;32477;51.474;5.696;2024-03-22T05:56:57;38.60;;;18.63;;
46731;SDS011;32477;51.474;5.696;2024-03-22T05:59:30;37.00;;;19.05;;
46731;SDS011;32477;51.474;5.696;2024-03-22T06:01:56;35.35;;;18.02;;
46731;SDS011;32477;51.474;5.696;2024-03-22T06:04:22;49.75;;;18.83;;
46731;SDS011;32477;51.474;5.696;2024-03-22T06:06:54;50.47;;;18.67;;
46731;SDS011;32477;51.474;5.696;2024-03-22T06:09:19;37.83;;;17.67;;
46731;SDS011;32477;51.474;5.696;2024-03-22T06:12:01;38.90;;;17.65;;
46731;SDS011;32477;51.474;5.696;2024-03-22T06:14:30;44.88;;;18.75;;
46731;SDS011;32477;51.474;5.696;2024-03-22T06:16:56;37.33;;;16.77;;
46731;SDS011;32477;51.474;5.696;2024-03-22T06:19:22;36.70;;;17.30;;
46731;SDS011;32477;51.474;5.696;2024-03-22T06:21:51;40.03;;;16.30;;
46731;SDS011;32477;51.474;5.696;2024-03-22T06:24:17;34.42;;;15.88;;
46731;SDS011;32477;51.474;5.696;2024-03-22T06:26:43;32.70;;;15.38;;
46731;SDS011;32477;51.474;5.696;2024-03-22T06:29:08;31.73;;;16.55;;
46731;SDS011;32477;51.474;5.696;2024-03-22T06:31:34;34.58;;;16.17;;
46731;SDS011;32477;51.474;5.696;2024-03-22T06:34:00;34.58;;;14.38;;
46731;SDS011;32477;51.474;5.696;2024-03-22T06:36:33;32.80;;;16.35;;
46731;SDS011;32477;51.474;5.696;2024-03-22T06:38:59;34.33;;;16.08;;
46731;SDS011;32477;51.474;5.696;2024-03-22T06:41:25;30.52;;;14.27;;
46731;SDS011;32477;51.474;5.696;2024-03-22T06:43:53;31.48;;;14.07;;
46731;SDS011;32477;51.474;5.696;2024-03-22T06:46:19;29.75;;;14.10;;
46731;SDS011;32477;51.474;5.696;2024-03-22T06:48:45;30.33;;;16.00;;
46731;SDS011;32477;51.474;5.696;2024-03-22T06:51:11;29.48;;;15.35;;
46731;SDS011;32477;51.474;5.696;2024-03-22T06:53:37;32.47;;;14.05;;
46731;SDS011;32477;51.474;5.696;2024-03-22T06:56:03;33.50;;;14.10;;
46731;SDS011;32477;51.474;5.696;2024-03-22T06:58:29;33.38;;;15.10;;
46731;SDS011;32477;51.474;5.696;2024-03-22T07:00:55;32.05;;;15.00;;
46731;SDS011;32477;51.474;5.696;2024-03-22T07:03:21;28.27;;;14.90;;
46731;SDS011;32477;51.474;5.696;2024-03-22T07:05:47;26.80;;;14.10;;
46731;SDS011;32477;51.474;5.696;2024-03-22T07:08:13;28.40;;;12.88;;
46731;SDS011;32477;51.474;5.696;2024-03-22T07:10:39;31.45;;;14.60;;
46731;SDS011;32477;51.474;5.696;2024-03-22T07:13:05;29.52;;;14.00;;
46731;SDS011;32477;51.474;5.696;2024-03-22T07:15:31;27.80;;;13.10;;
46731;SDS011;32477;51.474;5.696;2024-03-22T07:17:57;28.05;;;12.85;;
46731;SDS011;32477;51.474;5.696;2024-03-22T07:20:23;28.10;;;13.75;;
46731;SDS011;32477;51.474;5.696;2024-03-22T07:22:49;28.83;;;13.40;;
46731;SDS011;32477;51.474;5.696;2024-03-22T07:25:15;30.75;;;13.93;;
46731;SDS011;32477;51.474;5.696;2024-03-22T07:27:40;27.65;;;13.32;;
46731;SDS011;32477;51.474;5.696;2024-03-22T07:30:06;28.17;;;13.50;;
46731;SDS011;32477;51.474;5.696;2024-03-22T07:32:32;27.38;;;13.40;;
46731;SDS011;32477;51.474;5.696;2024-03-22T07:34:58;32.92;;;13.93;;
46731;SDS011;32477;51.474;5.696;2024-03-22T07:37:24;31.80;;;13.85;;
46731;SDS011;32477;51.474;5.696;2024-03-22T07:39:50;30.77;;;13.35;;
46731;SDS011;32477;51.474;5.696;2024-03-22T07:42:16;28.38;;;13.48;;
46731;SDS011;32477;51.474;5.696;2024-03-22T07:44:41;28.45;;;13.48;;
46731;SDS011;32477;51.474;5.696;2024-03-22T07:47:07;23.80;;;11.98;;
46731;SDS011;32477;51.474;5.696;2024-03-22T07:49:33;23.88;;;12.65;;
46731;SDS011;32477;51.474;5.696;2024-03-22T07:51:59;24.15;;;12.43;;
46731;SDS011;32477;51.474;5.696;2024-03-22T07:54:25;25.30;;;11.57;;
46731;SDS011;32477;51.474;5.696;2024-03-22T07:56:51;23.10;;;11.77;;
46731;SDS011;32477;51.474;5.696;2024-03-22T07:59:17;25.65;;;12.25;;
46731;SDS011;32477;51.474;5.696;2024-03-22T08:01:42;23.55;;;10.95;;
46731;SDS011;32477;51.474;5.696;2024-03-22T08:04:08;24.20;;;12.90;;
46731;SDS011;32477;51.474;5.696;2024-03-22T08:06:33;24.90;;;11.90;;
46731;SDS011;32477;51.474;5.696;2024-03-22T08:08:59;22.02;;;12.02;;
46731;SDS011;32477;51.474;5.696;2024-03-22T08:11:26;23.02;;;11.15;;
46731;SDS011;32477;51.474;5.696;2024-03-22T08:13:52;19.00;;;10.30;;
46731;SDS011;32477;51.474;5.696;2024-03-22T08:16:20;20.63;;;10.40;;
46731;SDS011;32477;51.474;5.696;2024-03-22T08:18:45;23.52;;;11.35;;
46731;SDS011;32477;51.474;5.696;2024-03-22T08:21:11;21.50;;;10.77;;
46731;SDS011;32477;51.474;5.696;2024-03-22T08:23:37;20.10;;;10.23;;
46731;SDS011;32477;51.474;5.696;2024-03-22T08:26:02;16.98;;;9.82;;
46731;SDS011;32477;51.474;5.696;2024-03-22T08:28:28;18.35;;;10.75;;
46731;SDS011;32477;51.474;5.696;2024-03-22T08:30:54;15.50;;;9.27;;
46731;SDS011;32477;51.474;5.696;2024-03-22T08:33:19;19.80;;;9.98;;
46731;SDS011;32477;51.474;5.696;2024-03-22T08:35:45;21.15;;;11.05;;
46731;SDS011;32477;51.474;5.696;2024-03-22T08:38:11;21.13;;;9.82;;
46731;SDS011;32477;51.474;5.696;2024-03-22T08:40:39;24.00;;;11.05;;
46731;SDS011;32477;51.474;5.696;2024-03-22T08:43:06;19.05;;;9.98;;
46731;SDS011;32477;51.474;5.696;2024-03-22T08:45:34;20.40;;;9.45;;
46731;SDS011;32477;51.474;5.696;2024-03-22T08:48:00;18.73;;;10.10;;
46731;SDS011;32477;51.474;5.696;2024-03-22T08:50:27;16.88;;;9.70;;
46731;SDS011;32477;51.474;5.696;2024-03-22T08:52:53;18.13;;;10.10;;
46731;SDS011;32477;51.474;5.696;2024-03-22T08:55:18;17.42;;;10.07;;
46731;SDS011;32477;51.474;5.696;2024-03-22T08:57:44;19.58;;;9.75;;
46731;SDS011;32477;51.474;5.696;2024-03-22T09:00:11;16.42;;;9.23;;
46731;SDS011;32477;51.474;5.696;2024-03-22T09:02:37;15.38;;;9.75;;
46731;SDS011;32477;51.474;5.696;2024-03-22T09:05:03;14.40;;;9.13;;
46731;SDS011;32477;51.474;5.696;2024-03-22T09:07:30;17.70;;;10.00;;
46731;SDS011;32477;51.474;5.696;2024-03-22T09:09:55;21.58;;;10.55;;
46731;SDS011;32477;51.474;5.696;2024-03-22T09:12:21;19.35;;;10.18;;
46731;SDS011;32477;51.474;5.696;2024-03-22T09:14:47;16.38;;;8.80;;
46731;SDS011;32477;51.474;5.696;2024-03-22T09:17:13;17.17;;;9.60;;
46731;SDS011;32477;51.474;5.696;2024-03-22T09:19:38;18.58;;;9.70;;
46731;SDS011;32477;51.474;5.696;2024-03-22T09:22:05;16.70;;;8.77;;
46731;SDS011;32477;51.474;5.696;2024-03-22T09:24:31;18.52;;;9.23;;
46731;SDS011;32477;51.474;5.696;2024-03-22T09:26:57;16.73;;;9.18;;
46731;SDS011;32477;51.474;5.696;2024-03-22T09:29:22;16.70;;;8.68;;
46731;SDS011;32477;51.474;5.696;2024-03-22T09:31:48;15.60;;;8.93;;
46731;SDS011;32477;51.474;5.696;2024-03-22T09:34:15;15.80;;;8.07;;
46731;SDS011;32477;51.474;5.696;2024-03-22T09:36:41;17.88;;;9.52;;
46731;SDS011;32477;51.474;5.696;2024-03-22T09:39:07;16.27;;;9.18;;
46731;SDS011;32477;51.474;5.696;2024-03-22T09:41:33;19.73;;;9.35;;
46731;SDS011;32477;51.474;5.696;2024-03-22T09:44:06;20.42;;;9.43;;
46731;SDS011;32477;51.474;5.696;2024-03-22T09:46:33;12.38;;;8.05;;
46731;SDS011;32477;51.474;5.696;2024-03-22T09:48:59;15.02;;;8.25;;
46731;SDS011;32477;51.474;5.696;2024-03-22T09:51:26;15.25;;;8.68;;
46731;SDS011;32477;51.474;5.696;2024-03-22T09:53:53;14.82;;;7.57;;
46731;SDS011;32477;51.474;5.696;2024-03-22T09:56:20;13.88;;;7.70;;
46731;SDS011;32477;51.474;5.696;2024-03-22T09:58:46;11.13;;;7.25;;
46731;SDS011;32477;51.474;5.696;2024-03-22T10:01:12;15.45;;;6.93;;
46731;SDS011;32477;51.474;5.696;2024-03-22T10:03:39;16.10;;;8.07;;
46731;SDS011;32477;51.474;5.696;2024-03-22T10:06:05;13.43;;;6.95;;
46731;SDS011;32477;51.474;5.696;2024-03-22T10:08:31;12.73;;;7.15;;
46731;SDS011;32477;51.474;5.696;2024-03-22T10:10:57;10.27;;;7.63;;
46731;SDS011;32477;51.474;5.696;2024-03-22T10:13:23;13.65;;;7.03;;
46731;SDS011;32477;51.474;5.696;2024-03-22T10:15:49;15.65;;;7.55;;
46731;SDS011;32477;51.474;5.696;2024-03-22T10:18:14;12.75;;;7.22;;
46731;SDS011;32477;51.474;5.696;2024-03-22T10:20:40;12.80;;;7.10;;
46731;SDS011;32477;51.474;5.696;2024-03-22T10:23:07;15.77;;;6.95;;
46731;SDS011;32477;51.474;5.696;2024-03-22T10:25:33;15.13;;;7.65;;
46731;SDS011;32477;51.474;5.696;2024-03-22T10:27:59;14.45;;;7.35;;
46731;SDS011;32477;51.474;5.696;2024-03-22T10:30:25;12.75;;;7.93;;
46731;SDS011;32477;51.474;5.696;2024-03-22T10:32:51;10.45;;;7.13;;
46731;SDS011;32477;51.474;5.696;2024-03-22T10:35:17;11.60;;;7.28;;
46731;SDS011;32477;51.474;5.696;2024-03-22T10:37:43;12.57;;;7.15;;
46731;SDS011;32477;51.474;5.696;2024-03-22T10:40:09;12.60;;;7.57;;
46731;SDS011;32477;51.474;5.696;2024-03-22T10:42:36;14.35;;;8.32;;
46731;SDS011;32477;51.474;5.696;2024-03-22T10:45:04;16.67;;;8.27;;
46731;SDS011;32477;51.474;5.696;2024-03-22T10:47:31;15.43;;;8.55;;
46731;SDS011;32477;51.474;5.696;2024-03-22T10:50:05;15.40;;;8.25;;
46731;SDS011;32477;51.474;5.696;2024-03-22T10:52:59;13.32;;;8.20;;
46731;SDS011;32477;51.474;5.696;2024-03-22T10:55:27;14.95;;;8.30;;
46731;SDS011;32477;51.474;5.696;2024-03-22T10:57:57;14.20;;;8.45;;
46731;SDS011;32477;51.474;5.696;2024-03-22T11:00:30;14.73;;;8.20;;
46731;SDS011;32477;51.474;5.696;2024-03-22T11:03:01;15.13;;;8.90;;
46731;SDS011;32477;51.474;5.696;2024-03-22T11:05:27;16.58;;;8.80;;
46731;SDS011;32477;51.474;5.696;2024-03-22T11:08:03;15.15;;;8.80;;
46731;SDS011;32477;51.474;5.696;2024-03-22T11:10:30;16.83;;;9.02;;
46731;SDS011;32477;51.474;5.696;2024-03-22T11:13:00;23.13;;;10.07;;
46731;SDS011;32477;51.474;5.696;2024-03-22T11:15:30;21.40;;;9.43;;
46731;SDS011;32477;51.474;5.696;2024-03-22T11:17:56;14.00;;;8.57;;
46731;SDS011;32477;51.474;5.696;2024-03-22T11:20:22;14.70;;;8.32;;
46731;SDS011;32477;51.474;5.696;2024-03-22T11:22:48;14.70;;;8.65;;
46731;SDS011;32477;51.474;5.696;2024-03-22T11:25:16;15.65;;;9.48;;
46731;SDS011;32477;51.474;5.696;2024-03-22T11:27:41;23.95;;;9.80;;
46731;SDS011;32477;51.474;5.696;2024-03-22T11:30:07;17.15;;;8.80;;
46731;SDS011;32477;51.474;5.696;2024-03-22T11:32:33;17.25;;;8.82;;
46731;SDS011;32477;51.474;5.696;2024-03-22T11:35:11;18.70;;;8.73;;
46731;SDS011;32477;51.474;5.696;2024-03-22T11:37:41;18.80;;;9.10;;
46731;SDS011;32477;51.474;5.696;2024-03-22T11:40:10;17.35;;;9.73;;
46731;SDS011;32477;51.474;5.696;2024-03-22T11:42:37;16.33;;;10.05;;
46731;SDS011;32477;51.474;5.696;2024-03-22T11:45:05;16.83;;;10.27;;
46731;SDS011;32477;51.474;5.696;2024-03-22T11:47:33;16.33;;;9.77;;
46731;SDS011;32477;51.474;5.696;2024-03-22T11:49:59;17.45;;;10.60;;
46731;SDS011;32477;51.474;5.696;2024-03-22T11:52:25;19.90;;;12.20;;
46731;SDS011;32477;51.474;5.696;2024-03-22T11:54:54;20.02;;;10.77;;
46731;SDS011;32477;51.474;5.696;2024-03-22T11:57:20;20.52;;;12.63;;
46731;SDS011;32477;51.474;5.696;2024-03-22T11:59:46;25.10;;;14.10;;
46731;SDS011;32477;51.474;5.696;2024-03-22T12:02:13;23.05;;;14.30;;
46731;SDS011;32477;51.474;5.696;2024-03-22T12:04:42;22.25;;;13.65;;
46731;SDS011;32477;51.474;5.696;2024-03-22T12:07:11;27.48;;;14.23;;
46731;SDS011;32477;51.474;5.696;2024-03-22T12:09:40;25.60;;;14.98;;
46731;SDS011;32477;51.474;5.696;2024-03-22T12:12:08;29.05;;;15.10;;
46731;SDS011;32477;51.474;5.696;2024-03-22T12:14:35;33.08;;;15.23;;
46731;SDS011;32477;51.474;5.696;2024-03-22T12:17:01;26.35;;;15.90;;
46731;SDS011;32477;51.474;5.696;2024-03-22T12:19:28;27.95;;;15.57;;
46731;SDS011;32477;51.474;5.696;2024-03-22T12:21:54;28.10;;;15.18;;
46731;SDS011;32477;51.474;5.696;2024-03-22T12:24:20;28.27;;;16.70;;
46731;SDS011;32477;51.474;5.696;2024-03-22T12:26:46;26.73;;;15.98;;
46731;SDS011;32477;51.474;5.696;2024-03-22T12:29:12;29.95;;;16.73;;
46731;SDS011;32477;51.474;5.696;2024-03-22T12:31:38;28.40;;;16.00;;
46731;SDS011;32477;51.474;5.696;2024-03-22T12:34:04;23.50;;;14.38;;
46731;SDS011;32477;51.474;5.696;2024-03-22T12:36:30;29.75;;;14.95;;
46731;SDS011;32477;51.474;5.696;2024-03-22T12:38:55;22.98;;;13.75;;
46731;SDS011;32477;51.474;5.696;2024-03-22T12:41:21;24.70;;;14.07;;
46731;SDS011;32477;51.474;5.696;2024-03-22T12:43:47;21.98;;;14.50;;
46731;SDS011;32477;51.474;5.696;2024-03-22T12:46:13;29.63;;;14.70;;
46731;SDS011;32477;51.474;5.696;2024-03-22T12:48:38;21.88;;;13.98;;
46731;SDS011;32477;51.474;5.696;2024-03-22T12:51:04;31.85;;;16.10;;
46731;SDS011;32477;51.474;5.696;2024-03-22T12:53:30;26.73;;;14.75;;
46731;SDS011;32477;51.474;5.696;2024-03-22T12:55:55;23.98;;;15.27;;
46731;SDS011;32477;51.474;5.696;2024-03-22T12:58:21;26.30;;;14.25;;
46731;SDS011;32477;51.474;5.696;2024-03-22T13:00:47;27.70;;;15.32;;
46731;SDS011;32477;51.474;5.696;2024-03-22T13:03:12;31.65;;;16.25;;
46731;SDS011;32477;51.474;5.696;2024-03-22T13:05:40;29.80;;;16.10;;
46731;SDS011;32477;51.474;5.696;2024-03-22T13:08:05;31.13;;;15.50;;
46731;SDS011;32477;51.474;5.696;2024-03-22T13:10:32;28.27;;;16.83;;
46731;SDS011;32477;51.474;5.696;2024-03-22T13:12:57;29.48;;;16.73;;
46731;SDS011;32477;51.474;5.696;2024-03-22T13:15:23;27.95;;;16.50;;
46731;SDS011;32477;51.474;5.696;2024-03-22T13:17:49;30.30;;;16.98;;
46731;SDS011;32477;51.474;5.696;2024-03-22T13:20:15;29.40;;;16.58;;
46731;SDS011;32477;51.474;5.696;2024-03-22T13:22:43;29.52;;;16.45;;
46731;SDS011;32477;51.474;5.696;2024-03-22T13:25:09;29.70;;;16.92;;
46731;SDS011;32477;51.474;5.696;2024-03-22T13:27:36;30.95;;;17.02;;
46731;SDS011;32477;51.474;5.696;2024-03-22T13:30:08;32.33;;;17.77;;
46731;SDS011;32477;51.474;5.696;2024-03-22T13:32:36;34.65;;;17.77;;
46731;SDS011;32477;51.474;5.696;2024-03-22T13:35:02;35.58;;;17.92;;
46731;SDS011;32477;51.474;5.696;2024-03-22T13:37:28;38.45;;;19.15;;
46731;SDS011;32477;51.474;5.696;2024-03-22T13:39:54;26.98;;;15.02;;
46731;SDS011;32477;51.474;5.696;2024-03-22T13:42:19;23.95;;;14.75;;
46731;SDS011;32477;51.474;5.696;2024-03-22T13:44:45;23.42;;;13.60;;
46731;SDS011;32477;51.474;5.696;2024-03-22T13:47:11;30.45;;;15.32;;
46731;SDS011;32477;51.474;5.696;2024-03-22T13:49:37;18.75;;;12.07;;
46731;SDS011;32477;51.474;5.696;2024-03-22T13:52:06;24.77;;;12.38;;
46731;SDS011;32477;51.474;5.696;2024-03-22T13:54:35;19.38;;;11.60;;
46731;SDS011;32477;51.474;5.696;2024-03-22T13:57:00;17.85;;;10.43;;
46731;SDS011;32477;51.474;5.696;2024-03-22T13:59:27;19.60;;;10.95;;
46731;SDS011;32477;51.474;5.696;2024-03-22T14:01:53;17.33;;;10.70;;
46731;SDS011;32477;51.474;5.696;2024-03-22T14:04:19;16.23;;;9.85;;
46731;SDS011;32477;51.474;5.696;2024-03-22T14:06:45;17.95;;;9.98;;
46731;SDS011;32477;51.474;5.696;2024-03-22T14:09:10;19.50;;;10.25;;
46731;SDS011;32477;51.474;5.696;2024-03-22T14:11:38;13.15;;;8.38;;
46731;SDS011;32477;51.474;5.696;2024-03-22T14:14:04;16.48;;;7.82;;
46731;SDS011;32477;51.474;5.696;2024-03-22T14:16:30;14.43;;;7.70;;
46731;SDS011;32477;51.474;5.696;2024-03-22T14:18:56;15.13;;;7.68;;
46731;SDS011;32477;51.474;5.696;2024-03-22T14:21:21;11.73;;;7.00;;
46731;SDS011;32477;51.474;5.696;2024-03-22T14:23:48;12.05;;;6.95;;